createdAt,value
2023-03-19T00:00:44.637Z,100682.06
2023-03-19T00:03:11.799Z,100659.72
2023-03-19T00:05:38.754Z,100680.88
2023-03-19T00:08:06.447Z,100679.56
2023-03-19T00:10:33.369Z,100662.97
2023-03-19T00:13:00.535Z,100659.94
2023-03-19T00:15:27.529Z,100668.13
2023-03-19T00:17:56.516Z,100667.88
2023-03-19T00:20:23.450Z,100673.03
2023-03-19T00:22:50.481Z,100643.72
2023-03-19T00:25:17.548Z,100650.75
2023-03-19T00:27:44.720Z,100673.50
2023-03-19T00:30:12.202Z,100665.91
2023-03-19T00:32:39.517Z,100666.16
2023-03-19T00:35:08.181Z,100659.28
2023-03-19T00:37:35.544Z,100664.78
2023-03-19T00:40:04.341Z,100659.38
2023-03-19T00:42:32.091Z,100666.63
2023-03-19T00:44:59.471Z,100635.25
2023-03-19T00:47:27.012Z,100677.75
2023-03-19T00:49:53.954Z,100686.78
2023-03-19T00:52:21.229Z,100671.59
2023-03-19T00:54:48.281Z,100657.59
2023-03-19T00:57:15.246Z,100646.47
2023-03-19T00:59:42.197Z,100663.72
2023-03-19T01:02:09.124Z,100677.69
2023-03-19T01:04:36.560Z,100663.22
2023-03-19T01:07:03.564Z,100685.50
2023-03-19T01:09:30.750Z,100687.09
2023-03-19T01:11:57.673Z,100670.19
2023-03-19T01:14:25.423Z,100668.88
2023-03-19T01:16:52.441Z,100673.28
2023-03-19T01:19:20.125Z,100676.19
2023-03-19T01:21:47.061Z,100653.03
2023-03-19T01:24:18.245Z,100683.44
2023-03-19T01:26:48.327Z,100694.69
2023-03-19T01:29:32.577Z,100688.75
2023-03-19T01:32:08.762Z,100685.84
2023-03-19T01:35:14.395Z,100691.94
2023-03-19T01:37:41.732Z,100693.16
2023-03-19T01:40:13.237Z,100673.59
2023-03-19T01:42:58.725Z,100682.06
2023-03-19T01:45:43.924Z,100678.25
2023-03-19T01:48:51.746Z,100676.19
2023-03-19T01:51:28.722Z,100658.31
2023-03-19T01:54:07.030Z,100679.25
2023-03-19T01:57:12.034Z,100674.81
2023-03-19T02:00:01.997Z,100676.53
2023-03-19T02:02:50.306Z,100659.16
2023-03-19T02:05:28.359Z,100667.63
2023-03-19T02:08:06.535Z,100665.50
2023-03-19T02:10:34.886Z,100671.63
2023-03-19T02:13:02.194Z,100662.31
2023-03-19T02:15:29.393Z,100633.91
2023-03-19T02:17:56.321Z,100669.66
2023-03-19T02:20:37.250Z,100678.13
2023-03-19T02:23:23.401Z,100666.13
2023-03-19T02:26:04.010Z,100685.66
2023-03-19T02:28:33.503Z,100668.53
2023-03-19T02:31:01.300Z,100688.94
2023-03-19T02:33:29.512Z,100662.00
2023-03-19T02:35:57.868Z,100661.66
2023-03-19T02:38:27.069Z,100658.34
2023-03-19T02:41:08.384Z,100677.44
2023-03-19T02:43:38.248Z,100677.66
2023-03-19T02:46:12.628Z,100683.03
2023-03-19T02:48:41.424Z,100697.03
2023-03-19T02:51:08.668Z,100693.47
2023-03-19T02:53:36.107Z,100693.09
2023-03-19T02:56:03.142Z,100668.06
2023-03-19T02:58:30.038Z,100666.63
2023-03-19T03:00:57.235Z,100687.72
2023-03-19T03:03:24.259Z,100645.09
2023-03-19T03:05:51.154Z,100677.94
2023-03-19T03:08:18.616Z,100668.41
2023-03-19T03:10:45.656Z,100657.78
2023-03-19T03:13:12.713Z,100679.56
2023-03-19T03:15:40.630Z,100689.44
2023-03-19T03:18:07.577Z,100694.22
2023-03-19T03:20:34.785Z,100687.09
2023-03-19T03:23:02.618Z,100677.78
2023-03-19T03:25:30.572Z,100646.59
2023-03-19T03:27:57.517Z,100659.84
2023-03-19T03:30:25.252Z,100679.44
2023-03-19T03:32:52.702Z,100685.06
2023-03-19T03:35:22.464Z,100691.69
2023-03-19T03:37:50.833Z,100677.34
2023-03-19T03:40:18.180Z,100691.16
2023-03-19T03:42:45.159Z,100673.78
2023-03-19T03:45:12.936Z,100659.97
2023-03-19T03:47:42.156Z,100686.13
2023-03-19T03:50:11.053Z,100686.66
2023-03-19T03:52:39.720Z,100699.44
2023-03-19T03:55:07.648Z,100666.81
2023-03-19T03:57:34.981Z,100685.06
2023-03-19T04:00:02.042Z,100665.63
2023-03-19T04:02:29.142Z,100685.34
2023-03-19T04:04:56.236Z,100656.06
2023-03-19T04:07:23.131Z,100683.38
2023-03-19T04:09:58.563Z,100671.28
2023-03-19T04:12:26.280Z,100681.41
2023-03-19T04:14:53.368Z,100688.47
2023-03-19T04:17:20.289Z,100677.22
2023-03-19T04:19:47.187Z,100691.69
2023-03-19T04:22:14.193Z,100685.44
2023-03-19T04:24:41.393Z,100648.78
2023-03-19T04:27:08.586Z,100671.44
2023-03-19T04:29:37.367Z,100689.56
2023-03-19T04:32:04.946Z,100699.34
2023-03-19T04:34:31.964Z,100681.06
2023-03-19T04:36:58.900Z,100689.63
2023-03-19T04:39:26.461Z,100674.47
2023-03-19T04:41:53.422Z,100704.63
2023-03-19T04:44:25.974Z,100679.41
2023-03-19T04:46:54.225Z,100698.38
2023-03-19T04:49:22.066Z,100695.69
2023-03-19T04:51:50.536Z,100713.31
2023-03-19T04:54:17.766Z,100711.44
2023-03-19T04:56:44.697Z,100693.81
2023-03-19T04:59:11.709Z,100707.88
2023-03-19T05:01:38.778Z,100699.81
2023-03-19T05:04:09.063Z,100701.22
2023-03-19T05:06:38.224Z,100692.94
2023-03-19T05:09:07.592Z,100701.75
2023-03-19T05:11:34.834Z,100716.59
2023-03-19T05:14:09.119Z,100703.69
2023-03-19T05:16:54.429Z,100689.25
2023-03-19T05:19:22.382Z,100694.38
2023-03-19T05:21:49.876Z,100688.16
2023-03-19T05:24:22.204Z,100687.81
2023-03-19T05:26:49.992Z,100706.69
2023-03-19T05:29:19.979Z,100686.94
2023-03-19T05:32:10.372Z,100709.50
2023-03-19T05:34:37.423Z,100691.22
2023-03-19T05:37:04.738Z,100707.44
2023-03-19T05:39:31.979Z,100686.19
2023-03-19T05:42:03.205Z,100697.34
2023-03-19T05:44:31.169Z,100709.38
2023-03-19T05:47:11.521Z,100721.84
2023-03-19T05:49:41.314Z,100716.59
2023-03-19T05:52:09.031Z,100683.63
2023-03-19T05:54:36.430Z,100685.06
2023-03-19T05:57:18.247Z,100702.25
2023-03-19T05:59:52.558Z,100716.22
2023-03-19T06:02:29.761Z,100680.13
2023-03-19T06:05:12.220Z,100690.31
2023-03-19T06:07:39.370Z,100720.75
2023-03-19T06:10:13.040Z,100738.31
2023-03-19T06:12:40.208Z,100706.84
2023-03-19T06:15:35.874Z,100728.06
2023-03-19T06:18:15.817Z,100716.16
2023-03-19T06:20:43.191Z,100738.06
2023-03-19T06:23:10.780Z,100722.16
2023-03-19T06:25:37.960Z,100742.28
2023-03-19T06:28:06.225Z,100723.59
2023-03-19T06:30:38.521Z,100724.63
2023-03-19T06:33:22.076Z,100742.69
2023-03-19T06:35:49.363Z,100753.63
2023-03-19T06:38:16.613Z,100738.38
2023-03-19T06:40:45.945Z,100751.50
2023-03-19T06:43:13.004Z,100722.06
2023-03-19T06:45:40.015Z,100750.19
2023-03-19T06:48:07.173Z,100739.44
2023-03-19T06:50:34.365Z,100759.97
2023-03-19T06:53:02.435Z,100734.53
2023-03-19T06:55:30.948Z,100729.78
2023-03-19T06:57:57.887Z,100767.34
2023-03-19T07:00:25.304Z,100705.75
2023-03-19T07:02:52.265Z,100776.97
2023-03-19T07:05:19.275Z,100750.84
2023-03-19T07:07:46.236Z,100680.69
2023-03-19T07:10:13.753Z,100757.09
2023-03-19T07:12:40.773Z,100747.34
2023-03-19T07:15:08.207Z,100759.28
2023-03-19T07:17:35.340Z,100722.00
2023-03-19T07:20:02.321Z,100781.13
2023-03-19T07:22:29.296Z,100764.22
2023-03-19T07:24:56.195Z,100718.84
2023-03-19T07:27:24.316Z,100769.72
2023-03-19T07:29:51.222Z,100790.31
2023-03-19T07:32:18.201Z,100769.97
2023-03-19T07:34:45.262Z,100773.78
2023-03-19T07:37:12.462Z,100790.31
2023-03-19T07:39:39.436Z,100773.75
2023-03-19T07:42:06.571Z,100757.41
2023-03-19T07:44:33.714Z,100790.59
2023-03-19T07:47:00.904Z,100782.59
2023-03-19T07:49:27.797Z,100797.53
2023-03-19T07:51:54.814Z,100793.47
2023-03-19T07:54:23.541Z,100803.75
2023-03-19T07:56:50.741Z,100787.34
2023-03-19T07:59:17.730Z,100784.00
2023-03-19T08:01:44.728Z,100810.09
2023-03-19T08:04:11.678Z,100792.03
2023-03-19T08:06:38.654Z,100796.94
2023-03-19T08:09:05.901Z,100799.66
2023-03-19T08:11:32.842Z,100791.41
2023-03-19T08:13:59.798Z,100812.97
2023-03-19T08:16:27.066Z,100788.66
2023-03-19T08:18:54.592Z,100803.34
2023-03-19T08:21:21.512Z,100813.88
2023-03-19T08:23:48.412Z,100812.16
2023-03-19T08:26:16.172Z,100821.22
2023-03-19T08:28:43.069Z,100815.22
2023-03-19T08:31:12.795Z,100804.53
2023-03-19T08:33:39.873Z,100816.34
2023-03-19T08:36:13.193Z,100824.97
2023-03-19T08:38:40.607Z,100808.03
2023-03-19T08:41:09.097Z,100804.94
2023-03-19T08:43:37.365Z,100811.25
2023-03-19T08:46:05.948Z,100794.44
2023-03-19T08:48:32.951Z,100821.19
2023-03-19T08:51:02.618Z,100828.47
2023-03-19T08:53:30.672Z,100828.06
2023-03-19T08:56:00.971Z,100812.63
2023-03-19T08:58:28.952Z,100837.22
2023-03-19T09:01:10.993Z,100821.66
2023-03-19T09:03:39.101Z,100821.47
2023-03-19T09:06:09.279Z,100815.97
2023-03-19T09:08:37.344Z,100826.03
2023-03-19T09:11:05.808Z,100828.22
2023-03-19T09:13:33.294Z,100826.91
2023-03-19T09:16:01.910Z,100817.50
2023-03-19T09:18:29.378Z,100823.22
2023-03-19T09:20:56.282Z,100832.47
2023-03-19T09:23:23.515Z,100829.00
2023-03-19T09:25:51.072Z,100837.69
2023-03-19T09:28:18.551Z,100853.13
2023-03-19T09:30:50.296Z,100824.47
2023-03-19T09:33:19.522Z,100835.97
2023-03-19T09:35:52.795Z,100835.34
2023-03-19T09:38:23.532Z,100853.28
2023-03-19T09:41:21.499Z,100839.47
2023-03-19T09:44:29.888Z,100847.03
2023-03-19T09:47:27.496Z,100847.59
2023-03-19T09:50:02.067Z,100853.34
2023-03-19T09:53:12.804Z,100842.16
2023-03-19T09:55:51.388Z,100846.81
2023-03-19T09:58:25.401Z,100837.53
2023-03-19T10:00:54.370Z,100846.41
2023-03-19T10:04:08.783Z,100857.06
2023-03-19T10:06:41.016Z,100860.88
2023-03-19T10:09:32.703Z,100869.16
2023-03-19T10:12:23.367Z,100850.16
2023-03-19T10:15:02.113Z,100882.28
2023-03-19T10:17:41.217Z,100849.88
2023-03-19T10:20:20.207Z,100853.28
2023-03-19T10:22:57.944Z,100851.78
2023-03-19T10:25:28.481Z,100863.47
2023-03-19T10:28:14.983Z,100841.16
2023-03-19T10:30:43.510Z,100833.94
2023-03-19T10:33:24.890Z,100869.66
2023-03-19T10:36:04.776Z,100878.09
2023-03-19T10:38:33.579Z,100849.78
2023-03-19T10:41:22.486Z,100866.00
2023-03-19T10:43:55.609Z,100878.25
2023-03-19T10:46:22.669Z,100866.09
2023-03-19T10:48:49.629Z,100864.31
2023-03-19T10:51:26.984Z,100876.38
2023-03-19T10:53:56.929Z,100890.56
2023-03-19T10:56:30.316Z,100896.00
2023-03-19T10:59:06.856Z,100885.00
2023-03-19T11:01:42.094Z,100893.44
2023-03-19T11:04:18.059Z,100901.75
2023-03-19T11:06:50.730Z,100902.91
2023-03-19T11:09:40.536Z,100871.53
2023-03-19T11:12:08.894Z,100907.66
2023-03-19T11:14:39.428Z,100897.50
2023-03-19T11:17:28.416Z,100906.91
2023-03-19T11:19:58.603Z,100913.59
2023-03-19T11:22:32.170Z,100913.16
2023-03-19T11:25:19.763Z,100920.94
2023-03-19T11:28:09.148Z,100925.09
2023-03-19T11:30:52.314Z,100909.38
2023-03-19T11:33:56.251Z,100937.81
2023-03-19T11:37:20.548Z,100920.16
2023-03-19T11:40:11.157Z,100902.75
2023-03-19T11:43:07.339Z,100917.91
2023-03-19T11:45:57.041Z,100902.31
2023-03-19T11:48:41.696Z,100918.69
2023-03-19T11:52:02.384Z,100913.59
2023-03-19T11:55:04.508Z,100915.47
2023-03-19T11:58:08.358Z,100916.97
2023-03-19T12:00:46.865Z,100902.41
2023-03-19T12:03:53.658Z,100913.16
2023-03-19T12:07:16.776Z,100906.66
2023-03-19T12:09:49.502Z,100919.56
2023-03-19T12:12:59.852Z,100911.94
2023-03-19T12:15:43.641Z,100914.94
2023-03-19T12:18:27.431Z,100923.53
2023-03-19T12:21:32.836Z,100916.00
2023-03-19T12:24:38.008Z,100923.16
2023-03-19T12:27:41.408Z,100907.22
2023-03-19T12:30:33.748Z,100907.50
2023-03-19T12:33:42.777Z,100918.94
2023-03-19T12:36:17.567Z,100904.09
2023-03-19T12:38:51.652Z,100893.00
2023-03-19T12:41:24.697Z,100901.00
2023-03-19T12:44:33.431Z,100907.59
2023-03-19T12:47:09.018Z,100915.84
2023-03-19T12:49:53.852Z,100895.72
2023-03-19T12:52:34.141Z,100911.59
2023-03-19T12:55:07.318Z,100885.81
2023-03-19T12:57:51.281Z,100900.59
2023-03-19T13:00:31.108Z,100904.13
2023-03-19T13:03:22.536Z,100881.03
2023-03-19T13:06:01.690Z,100890.72
2023-03-19T13:09:09.126Z,100904.56
2023-03-19T13:11:59.873Z,100894.72
2023-03-19T13:14:57.978Z,100856.97
2023-03-19T13:18:01.417Z,100903.06
2023-03-19T13:21:06.021Z,100898.50
2023-03-19T13:23:37.293Z,100889.97
2023-03-19T13:26:10.615Z,100884.97
2023-03-19T13:28:54.579Z,100875.72
2023-03-19T13:31:25.582Z,100895.69
2023-03-19T13:34:04.737Z,100897.47
2023-03-19T13:36:39.283Z,100898.47
2023-03-19T13:39:21.193Z,100886.72
2023-03-19T13:41:54.927Z,100883.56
2023-03-19T13:44:49.551Z,100872.47
2023-03-19T13:47:32.484Z,100892.59
2023-03-19T13:50:25.117Z,100896.06
2023-03-19T13:53:15.046Z,100887.50
2023-03-19T13:55:59.578Z,100890.22
2023-03-19T13:58:52.020Z,100864.22
2023-03-19T14:01:25.629Z,100886.88
2023-03-19T14:04:00.352Z,100890.41
2023-03-19T14:06:40.223Z,100884.84
2023-03-19T14:09:50.611Z,100877.97
2023-03-19T14:12:20.873Z,100882.31
2023-03-19T14:15:03.533Z,100879.38
2023-03-19T14:17:48.218Z,100879.72
2023-03-19T14:20:17.279Z,100881.00
2023-03-19T14:23:11.383Z,100881.94
2023-03-19T14:26:01.354Z,100879.06
2023-03-19T14:28:49.883Z,100882.50
2023-03-19T14:31:27.006Z,100886.22
2023-03-19T14:34:11.958Z,100887.41
2023-03-19T14:36:45.703Z,100883.09
2023-03-19T14:39:24.457Z,100877.69
2023-03-19T14:42:25.488Z,100885.38
2023-03-19T14:45:36.111Z,100858.81
2023-03-19T14:48:21.158Z,100883.09
2023-03-19T14:51:26.887Z,100885.78
2023-03-19T14:54:07.008Z,100878.78
2023-03-19T14:56:36.164Z,100878.03
2023-03-19T14:59:07.817Z,100884.22
2023-03-19T15:01:41.566Z,100887.03
2023-03-19T15:04:14.428Z,100879.22
2023-03-19T15:06:46.636Z,100881.00
2023-03-19T15:09:20.986Z,100889.84
2023-03-19T15:11:59.629Z,100872.50
2023-03-19T15:14:53.706Z,100884.25
2023-03-19T15:17:26.047Z,100889.41
2023-03-19T15:19:55.766Z,100891.19
2023-03-19T15:22:34.713Z,100888.91
2023-03-19T15:25:13.051Z,100886.88
2023-03-19T15:27:41.171Z,100891.19
2023-03-19T15:30:29.187Z,100891.09
2023-03-19T15:33:10.517Z,100871.13
2023-03-19T15:35:39.684Z,100886.88
2023-03-19T15:38:11.214Z,100890.91
2023-03-19T15:40:41.103Z,100896.47
2023-03-19T15:43:12.714Z,100883.88
2023-03-19T15:45:42.914Z,100888.47
2023-03-19T15:48:34.861Z,100893.75
2023-03-19T15:51:05.094Z,100896.34
2023-03-19T15:53:34.377Z,100900.50
2023-03-19T15:56:03.927Z,100903.50
2023-03-19T15:58:38.289Z,100915.25
2023-03-19T16:01:09.498Z,100896.81
2023-03-19T16:03:43.891Z,100888.97
2023-03-19T16:06:24.460Z,100908.53
2023-03-19T16:08:55.455Z,100896.53
2023-03-19T16:11:38.814Z,100918.81
2023-03-19T16:14:42.174Z,100916.84
2023-03-19T16:17:17.810Z,100909.16
2023-03-19T16:19:50.758Z,100924.72
2023-03-19T16:22:23.092Z,100930.56
2023-03-19T16:24:51.917Z,100931.69
2023-03-19T16:27:38.581Z,100919.00
2023-03-19T16:30:22.497Z,100932.69
2023-03-19T16:33:06.707Z,100939.00
2023-03-19T16:35:36.667Z,100939.44
2023-03-19T16:38:24.177Z,100932.53
2023-03-19T16:41:19.295Z,100927.66
2023-03-19T16:43:47.376Z,100937.22
2023-03-19T16:46:16.728Z,100934.91
2023-03-19T16:48:44.766Z,100925.03
2023-03-19T16:51:18.457Z,100934.78
2023-03-19T16:53:47.312Z,100930.56
2023-03-19T16:56:15.577Z,100934.22
2023-03-19T16:58:46.263Z,100919.22
2023-03-19T17:01:22.260Z,100937.66
2023-03-19T17:03:50.349Z,100935.78
2023-03-19T17:06:18.630Z,100943.03
2023-03-19T17:08:45.653Z,100940.44
2023-03-19T17:11:25.451Z,100946.56
2023-03-19T17:13:54.508Z,100940.69
2023-03-19T17:16:21.430Z,100944.75
2023-03-19T17:18:48.480Z,100936.25
2023-03-19T17:21:31.604Z,100951.47
2023-03-19T17:24:08.009Z,100940.03
2023-03-19T17:26:35.104Z,100944.97
2023-03-19T17:29:02.047Z,100948.47
2023-03-19T17:31:31.848Z,100956.41
2023-03-19T17:34:12.296Z,100954.34
2023-03-19T17:36:39.862Z,100962.81
2023-03-19T17:39:07.678Z,100964.72
2023-03-19T17:41:35.539Z,100960.84
2023-03-19T17:44:05.080Z,100978.22
2023-03-19T17:46:55.839Z,100976.31
2023-03-19T17:49:32.623Z,100980.31
2023-03-19T17:51:59.844Z,100964.31
2023-03-19T17:54:27.872Z,100977.00
2023-03-19T17:56:55.798Z,100981.09
2023-03-19T17:59:23.247Z,100973.84
2023-03-19T18:01:50.574Z,100980.66
2023-03-19T18:04:20.358Z,100983.53
2023-03-19T18:06:57.882Z,100980.69
2023-03-19T18:09:32.748Z,100977.44
2023-03-19T18:11:59.854Z,100981.53
2023-03-19T18:14:26.762Z,100976.16
2023-03-19T18:16:53.728Z,100974.94
2023-03-19T18:19:36.712Z,101012.38
2023-03-19T18:22:16.480Z,101005.50
2023-03-19T18:24:51.349Z,101015.81
2023-03-19T18:27:18.353Z,101028.56
2023-03-19T18:29:45.501Z,101003.50
2023-03-19T18:32:20.004Z,100991.03
2023-03-19T18:34:54.585Z,101022.25
2023-03-19T18:37:21.633Z,101029.72
2023-03-19T18:39:49.883Z,101018.69
2023-03-19T18:42:20.106Z,101042.56
2023-03-19T18:44:47.073Z,101051.84
2023-03-19T18:47:16.402Z,101027.94
2023-03-19T18:49:43.919Z,101034.00
2023-03-19T18:52:17.869Z,101003.81
2023-03-19T18:54:46.878Z,101030.81
2023-03-19T18:57:14.646Z,101012.84
2023-03-19T18:59:41.958Z,101032.47
2023-03-19T19:02:33.872Z,101058.44
2023-03-19T19:05:18.343Z,101030.34
2023-03-19T19:07:45.785Z,101032.00
2023-03-19T19:10:12.998Z,101046.09
2023-03-19T19:12:42.810Z,101026.59
2023-03-19T19:15:19.111Z,101052.03
2023-03-19T19:17:46.931Z,101049.09
2023-03-19T19:20:22.787Z,101070.81
2023-03-19T19:22:54.007Z,101067.25
2023-03-19T19:25:28.916Z,101063.84
2023-03-19T19:28:05.822Z,101068.50
2023-03-19T19:30:33.380Z,101067.28
2023-03-19T19:33:00.803Z,101056.94
2023-03-19T19:35:28.516Z,101056.16
2023-03-19T19:37:56.385Z,101089.97
2023-03-19T19:40:29.897Z,101094.75
2023-03-19T19:42:57.454Z,101088.44
2023-03-19T19:45:36.865Z,101104.09
2023-03-19T19:48:12.242Z,101102.09
2023-03-19T19:50:39.222Z,101108.25
2023-03-19T19:53:06.599Z,101082.78
2023-03-19T19:55:34.006Z,101111.59
2023-03-19T19:58:02.298Z,101093.72
2023-03-19T20:00:31.347Z,101095.09
2023-03-19T20:03:00.512Z,101080.34
2023-03-19T20:05:32.149Z,101117.13
2023-03-19T20:08:02.768Z,101091.94
2023-03-19T20:10:31.011Z,101102.16
2023-03-19T20:13:01.515Z,101096.00
2023-03-19T20:15:35.730Z,101124.38
2023-03-19T20:18:05.910Z,101096.19
2023-03-19T20:20:33.951Z,101126.69
2023-03-19T20:23:02.173Z,101135.63
2023-03-19T20:25:34.812Z,101114.09
2023-03-19T20:28:03.465Z,101113.06
2023-03-19T20:30:35.347Z,101123.88
2023-03-19T20:33:02.390Z,101120.69
2023-03-19T20:35:36.049Z,101133.31
2023-03-19T20:38:05.815Z,101133.31
2023-03-19T20:40:42.920Z,101150.03
2023-03-19T20:43:29.261Z,101149.50
2023-03-19T20:45:57.952Z,101166.31
2023-03-19T20:48:26.515Z,101146.03
2023-03-19T20:50:54.976Z,101164.56
2023-03-19T20:53:22.297Z,101152.81
2023-03-19T20:55:50.045Z,101177.19
2023-03-19T20:58:28.845Z,101171.22
2023-03-19T21:00:57.871Z,101173.78
2023-03-19T21:03:31.251Z,101170.69
2023-03-19T21:06:15.341Z,101186.63
2023-03-19T21:08:44.882Z,101174.53
2023-03-19T21:11:39.795Z,101191.88
2023-03-19T21:14:06.707Z,101187.22
2023-03-19T21:16:34.033Z,101194.88
2023-03-19T21:19:01.537Z,101206.41
2023-03-19T21:21:34.407Z,101208.31
2023-03-19T21:24:15.536Z,101215.47
2023-03-19T21:26:44.223Z,101192.00
2023-03-19T21:29:30.973Z,101195.94
2023-03-19T21:31:58.077Z,101203.53
2023-03-19T21:34:25.234Z,101191.19
2023-03-19T21:36:52.386Z,101216.06
2023-03-19T21:39:19.516Z,101208.09
2023-03-19T21:41:46.793Z,101221.09
2023-03-19T21:44:18.104Z,101217.09
2023-03-19T21:46:46.998Z,101218.84
2023-03-19T21:49:14.941Z,101230.31
2023-03-19T21:51:44.608Z,101192.59
2023-03-19T21:54:11.664Z,101208.88
2023-03-19T21:56:45.375Z,101222.03
2023-03-19T21:59:19.920Z,101216.97
2023-03-19T22:01:47.269Z,101207.19
2023-03-19T22:04:14.253Z,101199.94
2023-03-19T22:06:42.340Z,101211.16
2023-03-19T22:09:09.263Z,101189.44
2023-03-19T22:11:38.847Z,101214.31
2023-03-19T22:14:19.374Z,101211.53
2023-03-19T22:16:47.324Z,101204.34
2023-03-19T22:19:18.258Z,101214.78
2023-03-19T22:21:46.438Z,101228.09
2023-03-19T22:24:13.541Z,101207.03
2023-03-19T22:26:43.116Z,101218.91
2023-03-19T22:29:23.491Z,101204.16
2023-03-19T22:31:52.240Z,101208.53
2023-03-19T22:34:22.172Z,101217.41
2023-03-19T22:36:49.745Z,101237.38
2023-03-19T22:39:16.845Z,101212.78
2023-03-19T22:41:48.767Z,101221.09
2023-03-19T22:44:28.207Z,101240.50
2023-03-19T22:46:57.681Z,101245.78
2023-03-19T22:49:25.423Z,101233.03
2023-03-19T22:51:52.519Z,101218.59
2023-03-19T22:54:19.482Z,101228.09
2023-03-19T22:56:46.385Z,101246.28
2023-03-19T22:59:14.070Z,101236.94
2023-03-19T23:01:46.641Z,101263.44
2023-03-19T23:04:30.074Z,101246.16
2023-03-19T23:06:58.641Z,101261.78
2023-03-19T23:09:29.471Z,101246.72
2023-03-19T23:11:57.865Z,101251.81
2023-03-19T23:14:30.075Z,101263.00
2023-03-19T23:17:06.510Z,101267.84
2023-03-19T23:19:35.907Z,101272.34
2023-03-19T23:22:05.317Z,101258.00
2023-03-19T23:24:33.542Z,101268.31
2023-03-19T23:27:02.377Z,101253.88
2023-03-19T23:29:35.375Z,101262.06
2023-03-19T23:32:03.493Z,101260.22
2023-03-19T23:34:30.445Z,101246.88
2023-03-19T23:36:58.021Z,101255.38
2023-03-19T23:39:29.352Z,101257.75
2023-03-19T23:41:58.581Z,101254.41
2023-03-19T23:44:27.192Z,101250.09
2023-03-19T23:46:54.448Z,101253.44
2023-03-19T23:49:29.660Z,101248.81
2023-03-19T23:51:57.502Z,101271.22
2023-03-19T23:54:30.395Z,101259.06
2023-03-19T23:57:01.022Z,101261.94
2023-03-19T23:59:32.776Z,101274.44
